Time;durP1;ratioP1;P1;durP2;ratioP2;P2;SDS_P1;SDS_P2;PMS_P1;PMS_P2;Temp;Humidity;BMP_temperature;BMP_pressure;BME280_temperature;BME280_humidity;BME280_pressure;Samples;Min_cycle;Max_cycle;Signal;HPM_P1;HPM_P2
2022/07/21 00:00:03;;;;;;;611.58;557.47;;;;;;;30.99;29.47;101006.19;686993;28;69563;-67
2022/07/21 00:00:26;;;;;;;615.20;561.00;;;;;;;30.98;29.21;101021.25;685038;28;114031;-67
2022/07/21 00:00:49;;;;;;;612.95;558.75;;;;;;;30.98;29.57;101020.44;687146;28;4583;-68
2022/07/21 00:01:10;;;;;;;616.47;562.17;;;;;;;30.96;29.19;101022.66;685950;28;46142;-69
2022/07/21 00:01:32;;;;;;;613.75;559.55;;;;;;;30.90;29.23;101017.19;685481;28;44267;-67
2022/07/21 00:01:54;;;;;;;603.20;549.30;;;;;;;30.90;29.68;101021.94;685400;28;46577;-68
2022/07/21 00:02:16;;;;;;;598.15;544.35;;;;;;;30.88;29.71;101018.66;686037;28;46328;-68
2022/07/21 00:02:37;;;;;;;594.85;541.15;;;;;;;30.88;29.62;101030.63;685853;28;46153;-68
2022/07/21 00:02:59;;;;;;;602.80;548.92;;;;;;;30.85;29.54;101010.91;686695;28;22401;-69
2022/07/21 00:03:20;;;;;;;606.42;552.53;;;;;;;30.87;29.80;101011.41;688033;28;22333;-67
2022/07/21 00:03:42;;;;;;;606.45;552.45;;;;;;;30.87;29.66;101015.00;688500;28;21594;-67
2022/07/21 00:04:03;;;;;;;604.05;550.15;;;;;;;30.86;29.34;101018.97;686620;28;69113;-67
2022/07/21 00:04:25;;;;;;;604.05;550.15;;;;;;;30.82;29.52;101015.13;687553;28;15471;-67
2022/07/21 00:04:46;;;;;;;612.55;558.42;;;;;;;30.88;29.81;101021.44;687801;28;44370;-67
2022/07/21 00:05:08;;;;;;;611.17;557.08;;;;;;;30.89;29.55;101020.28;687133;28;47018;-66
2022/07/21 00:05:30;;;;;;;596.83;543.03;;;;;;;30.89;29.68;101021.13;687333;28;46685;-67
2022/07/21 00:05:51;;;;;;;595.58;541.80;;;;;;;30.89;29.76;101018.34;687733;28;46401;-67
2022/07/21 00:06:13;;;;;;;594.17;540.53;;;;;;;30.90;29.83;101014.41;688245;28;22259;-67
2022/07/21 00:06:34;;;;;;;593.40;539.78;;;;;;;30.91;29.51;101018.03;688798;28;23416;-68
2022/07/21 00:06:55;;;;;;;603.15;549.28;;;;;;;30.90;29.78;101014.41;687982;28;23449;-67
2022/07/21 00:07:17;;;;;;;603.53;549.63;;;;;;;30.93;29.61;101018.53;688027;28;22225;-66
2022/07/21 00:07:38;;;;;;;616.30;562.10;;;;;;;30.93;29.39;101017.72;687006;28;69469;-67
2022/07/21 00:08:00;;;;;;;615.95;561.70;;;;;;;30.93;29.91;101018.53;687975;28;45211;-68
2022/07/21 00:08:22;;;;;;;605.47;551.53;;;;;;;30.93;29.82;101014.94;688254;28;22401;-67
2022/07/21 00:08:43;;;;;;;596.90;543.25;;;;;;;30.94;29.82;101016.56;687650;28;47298;-67
2022/07/21 00:09:06;;;;;;;601.75;548.05;;;;;;;30.94;29.48;101020.22;684760;28;20814;-67
2022/07/21 00:09:27;;;;;;;604.13;550.15;;;;;;;30.94;29.31;101017.41;682943;28;69430;-67
2022/07/21 00:09:55;;;;;;;599.42;545.55;;;;;;;30.95;29.71;101021.03;684911;28;59462;-67
2022/07/21 00:10:16;;;;;;;614.15;560.00;;;;;;;30.93;29.68;101021.34;684501;28;69236;-67
2022/07/21 00:10:39;;;;;;;614.17;559.97;;;;;;;30.94;29.27;101020.22;686415;28;22337;-67
2022/07/21 00:11:00;;;;;;;608.75;554.70;;;;;;;30.88;29.61;101013.06;686867;28;46201;-68
2022/07/21 00:11:21;;;;;;;600.90;547.20;;;;;;;30.93;29.33;101017.72;687019;28;33360;-67
2022/07/21 00:11:42;;;;;;;596.80;543.00;;;;;;;30.92;29.46;101016.88;688280;28;23479;-67
2022/07/21 00:12:05;;;;;;;600.65;546.70;;;;;;;30.91;29.85;101018.03;685409;28;22502;-67
2022/07/21 00:12:26;;;;;;;591.45;537.90;;;;;;;30.89;29.53;101014.72;681101;28;69398;-68
2022/07/21 00:12:48;;;;;;;601.72;547.90;;;;;;;30.90;29.80;101019.16;682496;28;22442;-70
2022/07/21 00:13:09;;;;;;;614.97;560.75;;;;;;;30.89;29.64;101026.72;679900;28;45364;-67
2022/07/21 00:13:34;;;;;;;618.20;563.90;;;;;;;30.90;29.41;101013.59;682980;29;944;-68
2022/07/21 00:13:55;;;;;;;614.42;560.22;;;;;;;30.88;29.58;101016.69;679735;28;91965;-67
2022/07/21 00:14:16;;;;;;;614.05;559.90;;;;;;;30.87;29.76;101020.59;684676;28;22430;-67
2022/07/21 00:14:38;;;;;;;617.60;563.30;;;;;;;30.87;29.48;101008.63;684504;28;46393;-67
2022/07/21 00:14:59;;;;;;;619.22;564.83;;;;;;;30.86;29.37;101009.75;686142;28;23501;-67
2022/07/21 00:15:23;;;;;;;618.10;563.80;;;;;;;30.84;29.32;101007.25;688136;28;21510;-67
2022/07/21 00:15:45;;;;;;;617.65;563.35;;;;;;;30.83;29.86;101011.22;685942;28;93004;-67
2022/07/21 00:16:06;;;;;;;616.72;562.42;;;;;;;30.82;29.54;101006.75;687469;28;44138;-67
2022/07/21 00:16:27;;;;;;;619.50;565.20;;;;;;;30.82;29.65;101008.72;687740;28;22533;-67
2022/07/21 00:16:49;;;;;;;618.60;564.30;;;;;;;30.82;29.68;101017.09;687618;28;45254;-67
2022/07/21 00:17:11;;;;;;;612.30;558.00;;;;;;;30.78;29.45;101011.28;687341;28;46316;-67
2022/07/21 00:17:33;;;;;;;612.38;558.22;;;;;;;30.81;29.75;101009.84;688131;28;22376;-67
2022/07/21 00:17:54;;;;;;;616.78;562.47;;;;;;;30.81;29.69;101002.31;687717;28;46321;-67
2022/07/21 00:18:17;;;;;;;613.30;559.00;;;;;;;30.79;29.79;101007.38;688350;28;22434;-67
2022/07/21 00:18:38;;;;;;;617.55;563.08;;;;;;;30.76;29.96;101002.41;686415;28;67470;-68
2022/07/21 00:18:59;;;;;;;621.92;567.42;;;;;;;30.81;29.53;101005.09;688091;28;21379;-67
2022/07/21 00:19:21;;;;;;;627.50;572.90;;;;;;;30.82;29.92;101005.94;688209;28;22353;-67
2022/07/21 00:19:43;;;;;;;623.53;569.03;;;;;;;30.80;30.04;101000.66;687392;28;46698;-68
2022/07/21 00:20:06;;;;;;;618.63;564.22;;;;;;;30.85;29.95;101010.91;687480;28;45278;-68
2022/07/21 00:20:30;;;;;;;619.42;565.03;;;;;;;30.86;30.02;101006.97;686851;28;68298;-68
2022/07/21 00:20:51;;;;;;;623.03;568.63;;;;;;;30.84;29.98;100998.91;687071;28;68342;-67
2022/07/21 00:21:12;;;;;;;612.00;557.90;;;;;;;30.88;29.71;101002.75;687810;28;21315;-66
2022/07/21 00:21:35;;;;;;;615.58;561.35;;;;;;;30.88;29.52;101011.09;686795;28;46419;-67
2022/07/21 00:21:56;;;;;;;617.63;563.33;;;;;;;30.88;29.76;101008.31;687402;28;45219;-68
2022/07/21 00:22:17;;;;;;;620.08;565.67;;;;;;;30.90;29.64;101005.22;687924;28;46449;-67
2022/07/21 00:22:39;;;;;;;623.28;568.83;;;;;;;30.91;29.82;101004.09;688298;28;23442;-67
2022/07/21 00:23:01;;;;;;;620.67;566.28;;;;;;;30.93;29.84;101004.59;688135;28;22391;-67
2022/07/21 00:23:24;;;;;;;625.95;571.40;;;;;;;30.92;29.92;100994.56;686520;28;69443;-67
2022/07/21 00:23:45;;;;;;;628.22;573.55;;;;;;;30.94;29.59;100999.84;687467;28;45276;-67
2022/07/21 00:24:07;;;;;;;620.95;566.55;;;;;;;30.94;29.92;101002.63;687516;28;45228;-67
2022/07/21 00:24:29;;;;;;;621.17;566.72;;;;;;;30.94;29.54;100997.06;688344;28;23205;-67
2022/07/21 00:24:50;;;;;;;618.20;563.88;;;;;;;30.94;29.32;100991.47;687531;28;46461;-67
2022/07/21 00:25:13;;;;;;;615.43;561.23;;;;;;;30.96;29.40;101001.19;687111;28;44391;-67
2022/07/21 00:25:34;;;;;;;619.08;564.72;;;;;;;30.96;29.63;100998.41;686962;28;67559;-67
2022/07/21 00:25:56;;;;;;;618.92;564.53;;;;;;;30.94;29.38;100992.31;688495;28;23689;-67
2022/07/21 00:26:17;;;;;;;623.55;569.05;;;;;;;30.96;29.53;100994.78;687133;28;45351;-67
2022/07/21 00:26:39;;;;;;;617.07;562.73;;;;;;;30.95;29.83;100993.13;686666;28;44149;-67
2022/07/21 00:27:00;;;;;;;616.40;561.97;;;;;;;30.95;29.75;100993.94;687441;28;45268;-67
2022/07/21 00:27:21;;;;;;;623.10;568.53;;;;;;;30.96;29.60;100995.63;687921;28;22485;-67
2022/07/21 00:27:43;;;;;;;622.85;568.38;;;;;;;30.94;29.54;100991.47;688285;28;23761;-67
2022/07/21 00:28:05;;;;;;;622.80;568.33;;;;;;;30.94;29.74;100991.47;683921;28;46410;-66
2022/07/21 00:28:26;;;;;;;619.35;564.95;;;;;;;30.95;29.77;100985.59;684130;28;45250;-66
2022/07/21 00:28:48;;;;;;;626.15;571.63;;;;;;;30.94;29.81;100988.69;686097;28;22388;-67
2022/07/21 00:29:09;;;;;;;627.97;573.45;;;;;;;30.93;29.52;100993.44;685445;28;23473;-66
2022/07/21 00:29:31;;;;;;;628.22;573.65;;;;;;;30.93;29.58;100989.84;684620;28;44870;-67
2022/07/21 00:29:52;;;;;;;628.97;574.38;;;;;;;30.89;29.62;100982.09;685073;28;43960;-66
2022/07/21 00:30:14;;;;;;;622.65;568.25;;;;;;;30.88;29.66;100987.97;688160;28;23795;-67
2022/07/21 00:30:35;;;;;;;620.60;566.30;;;;;;;30.89;29.79;100987.66;688331;28;45250;-67
2022/07/21 00:30:57;;;;;;;623.85;569.40;;;;;;;30.88;29.30;100980.44;688173;28;23148;-67
2022/07/21 00:31:18;;;;;;;623.55;569.10;;;;;;;30.87;29.38;100981.56;687688;28;45243;-67
2022/07/21 00:31:40;;;;;;;625.38;570.95;;;;;;;30.87;29.56;100984.34;687657;28;22405;-67
2022/07/21 00:32:03;;;;;;;626.40;571.90;;;;;;;30.86;29.66;100979.91;688353;28;14657;-68
2022/07/21 00:32:26;;;;;;;624.03;569.63;;;;;;;30.87;29.35;100983.53;686005;28;92344;-68
2022/07/21 00:32:48;;;;;;;625.78;571.28;;;;;;;30.87;29.83;100984.34;687738;28;46265;-69
2022/07/21 00:33:09;;;;;;;621.65;567.25;;;;;;;30.87;29.42;100977.94;687514;28;44393;-68
2022/07/21 00:33:30;;;;;;;623.08;568.67;;;;;;;30.81;29.57;100971.63;687981;28;23467;-68
2022/07/21 00:33:52;;;;;;;620.33;565.93;;;;;;;30.85;29.41;100980.22;687757;28;45240;-68
2022/07/21 00:34:14;;;;;;;621.05;566.65;;;;;;;30.85;29.72;100978.25;686930;28;67192;-67
2022/07/21 00:34:35;;;;;;;623.95;569.55;;;;;;;30.85;29.65;100971.88;688549;28;23543;-68
2022/07/21 00:34:56;;;;;;;615.25;561.03;;;;;;;30.84;29.38;100979.38;688734;28;22416;-68
2022/07/21 00:35:18;;;;;;;621.97;567.60;;;;;;;30.83;29.39;100977.75;687798;28;23446;-68
2022/07/21 00:35:39;;;;;;;617.15;563.00;;;;;;;30.85;29.45;100971.88;687765;28;46364;-67
2022/07/21 00:36:01;;;;;;;623.53;569.13;;;;;;;30.84;29.48;100979.38;688473;28;22392;-68
2022/07/21 00:36:22;;;;;;;627.78;573.25;;;;;;;30.85;29.65;100977.44;686481;28;45264;-68
2022/07/21 00:36:44;;;;;;;623.65;569.15;;;;;;;30.83;29.65;100977.75;688686;28;22396;-68
2022/07/21 00:37:05;;;;;;;627.20;572.53;;;;;;;30.80;29.65;100969.16;686643;28;46349;-68
2022/07/21 00:37:27;;;;;;;619.05;564.65;;;;;;;30.82;29.81;100961.31;688056;28;23801;-68
2022/07/21 00:37:48;;;;;;;620.45;566.05;;;;;;;30.83;29.63;100974.97;686902;28;46340;-68
2022/07/21 00:38:10;;;;;;;622.53;568.05;;;;;;;30.85;29.65;100969.06;688112;28;22392;-67
2022/07/21 00:38:33;;;;;;;624.25;569.80;;;;;;;30.84;29.71;100971.03;687681;28;45194;-67
2022/07/21 00:38:54;;;;;;;623.40;568.90;;;;;;;30.81;29.42;100968.84;687758;28;46332;-68
2022/07/21 00:39:15;;;;;;;624.70;570.20;;;;;;;30.81;29.88;100971.63;687856;28;44452;-68
2022/07/21 00:39:36;;;;;;;623.55;569.03;;;;;;;30.82;29.39;100972.47;688368;28;21371;-68
2022/07/21 00:40:01;;;;;;;625.78;571.28;;;;;;;30.83;29.71;100962.97;688623;28;22425;-68
2022/07/21 00:40:22;;;;;;;616.55;562.25;;;;;;;30.84;29.95;100976.59;684615;28;115128;-67
2022/07/21 00:40:44;;;;;;;619.97;565.58;;;;;;;30.85;29.50;100972.69;688586;28;21194;-67
2022/07/21 00:41:06;;;;;;;624.70;570.20;;;;;;;30.85;29.71;100981.03;687844;28;22394;-68
2022/07/21 00:41:27;;;;;;;621.05;566.55;;;;;;;30.85;29.63;100967.09;686057;28;45244;-67
2022/07/21 00:41:51;;;;;;;618.88;564.45;;;;;;;30.84;29.68;100965.44;688289;28;13446;-68
2022/07/21 00:42:20;;;;;;;620.45;566.05;;;;;;;30.85;29.75;100971.88;688395;28;21540;-67
2022/07/21 00:42:44;;;;;;;620.58;566.15;;;;;;;30.81;29.83;100965.25;684685;28;137940;-67
2022/07/21 00:43:05;;;;;;;623.85;569.40;;;;;;;30.80;29.46;100974.72;686464;28;69439;-68
2022/07/21 00:43:26;;;;;;;624.15;569.65;;;;;;;30.82;29.65;100973.28;688517;28;21544;-67
2022/07/21 00:43:47;;;;;;;625.67;571.17;;;;;;;30.84;29.60;100971.03;688004;28;20903;-69
2022/07/21 00:44:20;;;;;;;620.13;565.72;;;;;;;30.84;29.99;100973.00;687296;28;46317;-67
2022/07/21 00:44:41;;;;;;;621.00;566.65;;;;;;;30.84;29.45;100975.78;684495;28;137561;-68
2022/07/21 00:45:05;;;;;;;621.55;567.05;;;;;;;30.83;29.51;100980.53;688094;28;21491;-67
2022/07/21 00:45:27;;;;;;;616.13;561.83;;;;;;;30.84;29.60;100981.34;685678;28;92126;-67
2022/07/21 00:45:49;;;;;;;622.38;567.95;;;;;;;30.84;29.54;100976.59;688478;28;45229;-68
2022/07/21 00:46:10;;;;;;;623.03;568.63;;;;;;;30.86;29.74;100973.50;687600;28;45830;-67
2022/07/21 00:46:31;;;;;;;618.50;564.10;;;;;;;30.86;29.70;100979.06;687353;28;23440;-68
2022/07/21 00:46:53;;;;;;;615.58;561.28;;;;;;;30.85;29.57;100969.91;687616;28;22415;-68
2022/07/21 00:47:14;;;;;;;622.15;567.55;;;;;;;30.86;29.85;100977.13;687239;28;46353;-67
2022/07/21 00:47:37;;;;;;;620.60;566.22;;;;;;;30.87;30.15;100981.56;689221;28;1519;-68
2022/07/21 00:47:59;;;;;;;623.15;568.65;;;;;;;30.88;29.44;100974.03;684517;28;70153;-67
2022/07/21 00:48:20;;;;;;;620.97;566.55;;;;;;;30.88;29.71;100974.03;683735;28;19553;-68
2022/07/21 00:48:41;;;;;;;619.72;565.33;;;;;;;30.88;29.37;100974.84;682633;28;47062;-68
2022/07/21 00:49:04;;;;;;;619.75;565.35;;;;;;;30.88;29.40;100977.66;683443;28;22332;-67
2022/07/21 00:49:25;;;;;;;621.75;567.35;;;;;;;30.89;29.32;100973.72;682977;28;45274;-67
2022/07/21 00:49:47;;;;;;;623.33;568.90;;;;;;;30.89;29.42;100968.16;682366;28;45454;-67
2022/07/21 00:50:18;;;;;;;619.72;565.38;;;;;;;30.92;29.82;100977.84;686189;28;22467;-67
2022/07/21 00:50:40;;;;;;;619.92;565.55;;;;;;;30.91;29.33;100977.03;683898;28;138330;-68
2022/07/21 00:51:02;;;;;;;623.20;568.72;;;;;;;30.93;29.32;100971.13;679236;29;46356;-68
2022/07/21 00:51:23;;;;;;;618.60;564.28;;;;;;;30.93;29.67;100973.94;680055;28;4146;-68
2022/07/21 00:51:44;;;;;;;621.72;567.33;;;;;;;30.92;29.71;100975.06;682432;28;22496;-67
2022/07/21 00:52:05;;;;;;;615.85;561.55;;;;;;;30.90;29.50;100975.38;682587;28;22499;-67
2022/07/21 00:52:27;;;;;;;624.83;570.33;;;;;;;30.90;29.63;100975.38;683926;28;1590;-68
2022/07/21 00:52:49;;;;;;;616.60;562.30;;;;;;;30.89;29.43;100968.16;683034;28;45314;-67
2022/07/21 00:53:10;;;;;;;613.88;559.63;;;;;;;30.90;29.34;100977.34;687566;28;45360;-68
2022/07/21 00:53:33;;;;;;;611.35;557.25;;;;;;;30.89;29.76;100972.88;689042;28;950;-67
2022/07/21 00:53:55;;;;;;;614.90;560.58;;;;;;;30.89;29.33;100973.72;688710;28;13427;-68
2022/07/21 00:54:18;;;;;;;620.30;565.80;;;;;;;30.90;29.19;100980.13;687966;28;23709;-68
2022/07/21 00:54:39;;;;;;;622.10;567.70;;;;;;;30.86;29.50;100982.72;686794;28;67501;-66
2022/07/21 00:55:01;;;;;;;618.47;564.15;;;;;;;30.83;29.57;100977.75;688273;28;21550;-68
2022/07/21 00:55:24;;;;;;;617.97;563.58;;;;;;;30.80;29.55;100978.38;687375;28;44471;-67
2022/07/21 00:55:46;;;;;;;618.05;563.72;;;;;;;30.80;29.38;100983.09;686671;28;69422;-68
2022/07/21 00:56:07;;;;;;;615.85;561.58;;;;;;;30.79;29.51;100973.91;686682;28;68941;-67
2022/07/21 00:56:28;;;;;;;621.35;566.97;;;;;;;30.77;29.66;100969.78;687566;28;22400;-67
2022/07/21 00:56:50;;;;;;;614.13;559.83;;;;;;;30.78;29.37;100977.81;689127;28;1693;-67
2022/07/21 00:57:13;;;;;;;627.10;572.40;;;;;;;30.77;29.53;100972.56;686919;28;44306;-68
2022/07/21 00:57:34;;;;;;;620.45;566.05;;;;;;;30.77;29.64;100978.13;686992;28;69473;-68
2022/07/21 00:57:56;;;;;;;619.85;565.55;;;;;;;30.73;29.38;100977.94;688217;28;22467;-68
2022/07/21 00:58:17;;;;;;;618.40;564.08;;;;;;;30.75;29.69;100978.44;687804;28;44395;-68
2022/07/21 00:58:40;;;;;;;618.17;563.78;;;;;;;30.76;29.61;100980.09;687350;28;45207;-67
2022/07/21 00:59:01;;;;;;;616.08;561.72;;;;;;;30.72;29.43;100977.13;686214;28;67242;-67
2022/07/21 00:59:23;;;;;;;615.28;560.97;;;;;;;30.75;29.78;100975.66;688307;28;23341;-68
2022/07/21 00:59:45;;;;;;;620.28;565.88;;;;;;;30.75;29.45;100975.66;688268;28;21351;-68
2022/07/21 01:00:10;;;;;;;616.97;562.67;;;;;;;30.77;29.95;100981.75;687578;28;45236;-68
2022/07/21 01:00:31;;;;;;;620.00;565.60;;;;;;;30.78;29.67;100977.81;686451;28;75816;-68
2022/07/21 01:00:53;;;;;;;618.03;563.70;;;;;;;30.76;29.21;100974.53;687848;28;22394;-68
2022/07/21 01:01:14;;;;;;;615.63;561.33;;;;;;;30.79;29.69;100984.25;688265;28;44386;-67
2022/07/21 01:01:36;;;;;;;619.22;564.78;;;;;;;30.78;29.65;100983.41;687554;28;23404;-68
2022/07/21 01:01:57;;;;;;;618.08;563.67;;;;;;;30.79;29.33;100976.69;687685;28;45266;-68
2022/07/21 01:02:18;;;;;;;620.67;566.38;;;;;;;30.80;29.68;100977.53;687886;28;22377;-67
2022/07/21 01:02:40;;;;;;;625.67;571.28;;;;;;;30.79;29.77;100979.50;688442;28;21273;-67
2022/07/21 01:03:02;;;;;;;623.80;569.40;;;;;;;30.78;29.86;100977.81;687336;28;44363;-68
2022/07/21 01:03:23;;;;;;;622.20;567.78;;;;;;;30.81;29.38;100984.75;687451;28;45279;-68
2022/07/21 01:03:44;;;;;;;623.35;568.92;;;;;;;30.80;29.31;100972.78;688749;28;22412;-67
2022/07/21 01:04:06;;;;;;;624.78;570.28;;;;;;;30.79;29.30;100982.28;688493;28;21618;-68
2022/07/21 01:04:27;;;;;;;624.65;570.25;;;;;;;30.79;29.47;100979.50;687715;28;47078;-68
2022/07/21 01:04:49;;;;;;;626.15;571.65;;;;;;;30.80;29.48;100980.31;687453;28;46262;-67
2022/07/21 01:05:14;;;;;;;629.53;574.90;;;;;;;30.79;29.75;100981.47;686784;28;46275;-68
2022/07/21 01:05:35;;;;;;;627.20;572.60;;;;;;;30.79;29.52;100978.66;685352;28;113022;-67
2022/07/21 01:05:58;;;;;;;628.08;573.58;;;;;;;30.81;29.46;100984.75;687903;28;22638;-67
2022/07/21 01:06:20;;;;;;;620.22;565.92;;;;;;;30.78;29.38;100974.22;687265;28;56563;-69
2022/07/21 01:06:41;;;;;;;619.17;564.88;;;;;;;30.79;29.38;100973.09;686923;28;42428;-67
2022/07/21 01:07:03;;;;;;;626.88;572.28;;;;;;;30.80;29.34;100985.88;688723;28;22512;-67
2022/07/21 01:07:25;;;;;;;626.22;571.63;;;;;;;30.80;29.33;100977.53;686223;28;67593;-68
2022/07/21 01:07:48;;;;;;;624.67;570.17;;;;;;;30.75;29.38;100972.88;688762;28;23486;-67
2022/07/21 01:08:10;;;;;;;625.30;570.80;;;;;;;30.73;29.62;100973.16;685415;28;91936;-69
2022/07/21 01:08:32;;;;;;;629.50;574.92;;;;;;;30.70;29.41;100971.00;688770;28;1032;-67
2022/07/21 01:08:54;;;;;;;626.83;572.22;;;;;;;30.73;29.47;100980.72;688727;28;21355;-68
2022/07/21 01:09:16;;;;;;;623.55;569.10;;;;;;;30.72;29.70;100979.06;686215;28;67479;-67
2022/07/21 01:09:38;;;;;;;622.72;568.25;;;;;;;30.71;29.65;100981.03;687907;28;21478;-67
2022/07/21 01:09:59;;;;;;;622.55;568.05;;;;;;;30.70;29.55;100975.75;687252;28;44371;-67
2022/07/21 01:10:23;;;;;;;622.08;567.55;;;;;;;30.66;29.52;100975.56;688589;28;22355;-67
2022/07/21 01:10:45;;;;;;;621.95;567.45;;;;;;;30.68;29.63;100978.84;685524;28;92245;-67
2022/07/21 01:11:06;;;;;;;624.25;569.72;;;;;;;30.68;29.76;100980.81;687453;28;46923;-67
2022/07/21 01:11:27;;;;;;;625.85;571.25;;;;;;;30.67;29.65;100979.16;687115;28;21547;-67
2022/07/21 01:11:49;;;;;;;627.13;572.53;;;;;;;30.65;29.60;100981.44;688325;28;22376;-68
2022/07/21 01:12:10;;;;;;;625.08;570.60;;;;;;;30.65;29.52;100984.22;688018;28;44382;-67
2022/07/21 01:12:32;;;;;;;626.35;571.92;;;;;;;30.65;29.36;100978.66;687894;28;22408;-67
2022/07/21 01:12:53;;;;;;;624.92;570.42;;;;;;;30.65;29.92;100981.44;688312;28;46280;-67
2022/07/21 01:13:14;;;;;;;627.58;573.08;;;;;;;30.63;29.93;100976.16;687942;28;21558;-67
2022/07/21 01:13:41;;;;;;;625.75;571.35;;;;;;;30.62;29.55;100982.06;688465;28;21403;-67
2022/07/21 01:14:03;;;;;;;628.53;574.00;;;;;;;30.62;29.75;100982.06;680017;28;158873;-67
2022/07/21 01:14:24;;;;;;;615.83;561.63;;;;;;;30.58;29.85;100978.22;684220;28;70077;-68
2022/07/21 01:14:46;;;;;;;610.85;556.78;;;;;;;30.58;29.38;100972.63;685632;28;22401;-67
2022/07/21 01:15:09;;;;;;;610.33;556.22;;;;;;;30.57;29.50;100979.38;685192;28;23517;-67
2022/07/21 01:15:31;;;;;;;609.58;555.38;;;;;;;30.58;29.67;100978.22;683411;28;91994;-67
2022/07/21 01:15:52;;;;;;;614.92;560.72;;;;;;;30.57;29.56;100982.16;685871;28;46292;-67
2022/07/21 01:16:14;;;;;;;627.05;572.35;;;;;;;30.53;29.55;100965.19;688734;28;22209;-67
2022/07/21 01:16:36;;;;;;;627.35;572.65;;;;;;;30.53;29.56;100976.34;686269;28;46301;-67
2022/07/21 01:16:58;;;;;;;628.67;573.92;;;;;;;30.53;29.69;100977.19;687180;28;46278;-67
2022/07/21 01:17:19;;;;;;;626.35;571.63;;;;;;;30.52;29.99;100974.72;687926;28;21080;-67
2022/07/21 01:17:41;;;;;;;624.03;569.45;;;;;;;30.51;30.00;100982.22;688355;28;21470;-68
2022/07/21 01:18:04;;;;;;;594.53;540.92;;;;;;;30.50;30.01;100976.94;687471;28;46350;-67
2022/07/21 01:18:25;;;;;;;600.53;546.63;;;;;;;30.48;29.82;100979.22;686518;28;67477;-67
2022/07/21 01:18:46;;;;;;;606.67;552.67;;;;;;;30.48;29.85;100979.22;688649;28;21551;-68
2022/07/21 01:19:07;;;;;;;607.42;553.33;;;;;;;30.45;29.72;100974.28;686915;28;46157;-67
2022/07/21 01:19:29;;;;;;;611.95;557.75;;;;;;;30.43;30.16;100971.78;688319;28;22389;-67
2022/07/21 01:19:52;;;;;;;615.15;560.95;;;;;;;30.42;30.25;100972.09;688532;28;22374;-66
2022/07/21 01:20:15;;;;;;;617.50;563.22;;;;;;;30.36;30.05;100968.53;686471;28;69253;-67
2022/07/21 01:20:38;;;;;;;613.10;559.00;;;;;;;30.36;30.19;100982.47;686568;28;69207;-66
2022/07/21 01:21:04;;;;;;;614.20;560.10;;;;;;;30.33;29.90;100981.13;686342;28;67626;-67
2022/07/21 01:21:33;;;;;;;615.47;561.38;;;;;;;30.30;30.06;100981.72;685034;28;92234;-67
2022/07/21 01:21:54;;;;;;;621.73;567.40;;;;;;;30.28;30.12;100980.38;679440;28;140013;-67
2022/07/21 01:22:15;;;;;;;632.00;577.30;;;;;;;30.27;30.50;100976.78;681747;29;46629;-67
2022/07/21 01:22:38;;;;;;;634.92;580.15;;;;;;;30.25;30.06;100970.69;681409;28;22212;-68
2022/07/21 01:23:01;;;;;;;635.50;580.70;;;;;;;30.23;30.34;100972.94;679719;29;69514;-67
2022/07/21 01:23:22;;;;;;;638.75;583.95;;;;;;;30.25;30.16;100967.91;680348;29;46312;-67
2022/07/21 01:23:43;;;;;;;639.53;584.65;;;;;;;30.22;29.88;100974.06;683494;28;1878;-67
2022/07/21 01:24:06;;;;;;;638.47;583.67;;;;;;;30.24;30.41;100977.38;686934;28;22384;-67
2022/07/21 01:24:28;;;;;;;636.17;581.40;;;;;;;30.24;30.49;100973.78;687613;28;44411;-67
2022/07/21 01:24:49;;;;;;;635.22;580.53;;;;;;;30.23;30.49;100972.94;687943;28;45254;-67
2022/07/21 01:25:11;;;;;;;631.00;576.40;;;;;;;30.23;30.29;100969.31;687395;28;44374;-67
2022/07/21 01:25:32;;;;;;;630.20;575.58;;;;;;;30.22;30.17;100970.44;687470;28;45313;-67
2022/07/21 01:25:54;;;;;;;625.75;571.28;;;;;;;30.22;30.54;100967.66;688770;28;22320;-67
2022/07/21 01:26:15;;;;;;;632.33;577.72;;;;;;;30.18;30.05;100965.47;686908;28;69399;-66
2022/07/21 01:26:41;;;;;;;633.08;578.45;;;;;;;30.19;30.40;100969.94;687543;28;22381;-67
2022/07/21 01:27:02;;;;;;;631.90;577.20;;;;;;;30.22;30.25;100970.44;684411;28;113565;-67
2022/07/21 01:27:25;;;;;;;627.20;572.67;;;;;;;30.19;30.05;100964.38;688273;28;1170;-67
2022/07/21 01:27:47;;;;;;;633.88;579.25;;;;;;;30.19;30.07;100964.38;687508;28;67498;-68
2022/07/21 01:28:09;;;;;;;634.65;579.85;;;;;;;30.19;30.55;100967.16;686558;28;69405;-66
2022/07/21 01:28:30;;;;;;;633.63;578.92;;;;;;;30.19;30.40;100958.78;687646;28;22655;-66
2022/07/21 01:28:52;;;;;;;632.10;577.42;;;;;;;30.21;30.07;100957.66;688625;28;22328;-66
2022/07/21 01:29:13;;;;;;;638.28;583.47;;;;;;;30.22;30.46;100960.16;687647;28;47463;-66
2022/07/21 01:29:35;;;;;;;637.13;582.33;;;;;;;30.24;30.02;100957.88;688674;28;23626;-66
2022/07/21 01:29:57;;;;;;;636.22;581.42;;;;;;;30.25;30.06;100965.13;687591;28;45332;-67
2022/07/21 01:30:18;;;;;;;631.67;576.97;;;;;;;30.28;30.03;100960.88;687384;28;45042;-66
2022/07/21 01:30:41;;;;;;;634.97;580.17;;;;;;;30.25;30.49;100956.75;688747;28;1624;-67
2022/07/21 01:31:03;;;;;;;638.65;583.75;;;;;;;30.30;30.04;100956.66;688484;28;45095;-67
2022/07/21 01:31:25;;;;;;;631.50;576.90;;;;;;;30.28;30.39;100958.94;686594;28;46393;-67
2022/07/21 01:31:48;;;;;;;624.50;570.20;;;;;;;30.28;30.15;100958.94;686676;28;69555;-67
2022/07/21 01:32:09;;;;;;;621.95;567.65;;;;;;;30.30;30.04;100956.66;686485;28;69308;-66
2022/07/21 01:32:30;;;;;;;624.65;570.35;;;;;;;30.30;30.28;100958.59;688451;28;23387;-66
2022/07/21 01:32:52;;;;;;;627.50;573.10;;;;;;;30.32;30.51;100961.94;688554;28;21545;-67
2022/07/21 01:33:14;;;;;;;623.45;569.15;;;;;;;30.31;30.21;100963.06;686929;28;43914;-66
2022/07/21 01:33:35;;;;;;;621.47;567.17;;;;;;;30.32;30.56;100959.16;687615;28;45204;-67
2022/07/21 01:33:56;;;;;;;618.88;564.67;;;;;;;30.33;30.57;100960.78;688373;28;22203;-66
2022/07/21 01:34:18;;;;;;;618.17;564.13;;;;;;;30.34;30.29;100960.47;687050;28;22227;-67
2022/07/21 01:34:39;;;;;;;608.97;555.17;;;;;;;30.32;30.01;100959.16;687513;28;46309;-67
2022/07/21 01:35:01;;;;;;;603.65;549.95;;;;;;;30.34;30.49;100960.47;688859;28;22181;-67
2022/07/21 01:35:22;;;;;;;605.55;551.75;;;;;;;30.33;30.69;100960.78;687127;28;45229;-68
2022/07/21 01:35:45;;;;;;;610.30;556.50;;;;;;;30.33;30.57;100966.34;688576;28;21388;-67
2022/07/21 01:36:07;;;;;;;636.17;581.60;;;;;;;30.34;30.30;100956.88;687403;28;46247;-67
2022/07/21 01:36:29;;;;;;;638.03;583.33;;;;;;;30.33;30.44;100961.63;686702;28;46284;-67
2022/07/21 01:36:51;;;;;;;645.55;590.65;;;;;;;30.35;30.07;100958.53;687294;28;43518;-68
2022/07/21 01:37:13;;;;;;;654.45;598.95;;;;;;;30.35;30.37;100961.31;686003;28;69358;-67
2022/07/21 01:37:37;;;;;;;645.88;590.88;;;;;;;30.33;30.38;100958.84;687740;28;21542;-67
2022/07/21 01:37:59;;;;;;;640.38;585.67;;;;;;;30.33;30.46;100958.84;685163;28;115407;-67
2022/07/21 01:41:40;;;;;;;647.65;592.85;;;;;;;30.34;30.16;100946.53;683412;28;137505;-67
2022/07/21 01:42:01;;;;;;;655.00;599.90;;;;;;;30.35;30.20;100947.38;687590;28;44321;-67